createdAt,value
2019-04-23T00:00:25.060Z,12.88
2019-04-23T00:02:44.400Z,12.58
2019-04-23T00:04:59.682Z,14.45
2019-04-23T00:10:19.552Z,13.20
2019-04-23T00:15:25.226Z,13.45
2019-04-23T00:18:03.139Z,14.30
2019-04-23T00:20:42.993Z,15.50
2019-04-23T00:23:16.310Z,15.75
2019-04-23T00:26:12.905Z,14.25
2019-04-23T00:28:35.416Z,15.75
2019-04-23T00:31:15.512Z,15.08
2019-04-23T00:33:40.897Z,15.38
2019-04-23T00:36:40.324Z,16.02
2019-04-23T00:38:55.831Z,18.02
2019-04-23T00:41:36.644Z,20.30
2019-04-23T00:44:37.721Z,19.45
2019-04-23T00:46:47.995Z,24.65
2019-04-23T00:49:25.561Z,22.05
2019-04-23T00:52:07.550Z,20.72
2019-04-23T00:54:46.358Z,18.30
2019-04-23T00:57:19.443Z,16.80
2019-04-23T00:59:57.326Z,15.00
2019-04-23T01:02:37.015Z,15.48
2019-04-23T01:05:17.887Z,15.23
2019-04-23T01:07:51.622Z,15.43
2019-04-23T01:10:29.242Z,15.60
2019-04-23T01:13:08.782Z,14.78
2019-04-23T01:18:35.853Z,19.52
2019-04-23T01:20:53.183Z,19.25
2019-04-23T01:23:41.878Z,20.25
2019-04-23T01:26:37.440Z,20.20
2019-04-23T01:29:24.343Z,19.40
2019-04-23T01:32:02.790Z,18.87
2019-04-23T01:34:42.308Z,19.45
2019-04-23T01:37:11.027Z,18.57
2019-04-23T01:39:46.691Z,17.98
2019-04-23T01:42:29.607Z,16.48
2019-04-23T01:45:01.365Z,17.85
2019-04-23T01:47:38.943Z,19.02
2019-04-23T01:50:14.282Z,18.07
2019-04-23T01:52:52.367Z,16.42
2019-04-23T01:55:29.642Z,14.30
2019-04-23T01:58:23.713Z,14.40
2019-04-23T02:00:45.163Z,14.07
2019-04-23T02:03:15.473Z,14.65
2019-04-23T02:05:51.532Z,14.43
2019-04-23T02:08:29.104Z,12.55
2019-04-23T02:11:00.367Z,13.25
2019-04-23T02:13:42.080Z,11.90
2019-04-23T02:16:21.356Z,12.30
2019-04-23T02:18:59.560Z,10.45
2019-04-23T02:27:22.930Z,11.18
2019-04-23T02:32:45.978Z,11.30
2019-04-23T02:35:32.745Z,9.78
2019-04-23T02:38:07.502Z,12.18
2019-04-23T02:40:45.340Z,9.93
2019-04-23T02:50:54.264Z,9.33
2019-04-23T02:53:44.428Z,8.68
2019-04-23T02:56:24.073Z,8.00
2019-04-23T02:59:01.884Z,9.80
2019-04-23T03:04:17.467Z,8.50
2019-04-23T03:06:56.075Z,7.78
2019-04-23T03:09:38.780Z,9.43
2019-04-23T03:18:04.108Z,7.17
2019-04-23T03:20:46.090Z,7.33
2019-04-23T03:23:34.914Z,8.33
2019-04-23T03:25:57.012Z,9.33
2019-04-23T03:28:37.727Z,9.95
2019-04-23T03:32:48.755Z,10.82
2019-04-23T03:34:19.653Z,13.53
2019-04-23T03:44:14.100Z,14.60
2019-04-23T03:49:32.876Z,15.45
2019-04-23T03:52:16.945Z,16.30
2019-04-23T03:54:49.220Z,16.80
2019-04-23T04:00:07.649Z,15.35
2019-04-23T04:05:10.813Z,16.05
2019-04-23T04:08:00.115Z,15.70
2019-04-23T04:10:33.966Z,14.80
2019-04-23T04:13:09.734Z,14.10
2019-04-23T04:15:55.245Z,14.63
2019-04-23T04:25:10.367Z,14.60
2019-04-23T04:27:18.807Z,13.50
2019-04-23T04:32:33.739Z,14.18
2019-04-23T04:35:18.336Z,15.03
2019-04-23T04:37:53.232Z,14.40
2019-04-23T04:40:31.278Z,17.35
2019-04-23T04:48:26.931Z,14.90
2019-04-23T04:51:13.666Z,16.12
2019-04-23T04:53:58.215Z,15.78
2019-04-23T05:01:48.347Z,14.55
2019-04-23T05:09:48.516Z,15.95
2019-04-23T05:12:22.810Z,14.90
2019-04-23T05:20:20.484Z,13.50
2019-04-23T05:23:02.555Z,13.35
2019-04-23T05:25:26.120Z,13.22
2019-04-23T05:28:12.545Z,13.05
2019-04-23T05:30:57.036Z,14.00
2019-04-23T05:33:25.427Z,14.35
2019-04-23T05:39:03.896Z,14.00
2019-04-23T05:41:26.969Z,13.00
2019-04-23T05:43:59.510Z,13.35
2019-04-23T05:46:48.601Z,13.03
2019-04-23T05:49:12.831Z,12.93
2019-04-23T05:51:55.461Z,12.60
2019-04-23T05:54:37.526Z,12.23
2019-04-23T05:57:10.297Z,11.45
2019-04-23T06:02:22.298Z,10.98
2019-04-23T06:05:05.998Z,11.88
2019-04-23T06:07:44.177Z,11.40
2019-04-23T06:15:31.733Z,10.78
2019-04-23T06:18:18.364Z,10.00
2019-04-23T06:21:00.843Z,9.75
2019-04-23T06:23:29.102Z,9.10
2019-04-23T06:26:26.875Z,8.60
2019-04-23T06:28:44.163Z,9.15
2019-04-23T06:33:59.340Z,8.38
2019-04-23T06:36:34.353Z,8.28
2019-04-23T06:39:13.399Z,7.95
2019-04-23T06:41:55.217Z,8.15
2019-04-23T06:44:30.825Z,8.03
2019-04-23T06:47:07.005Z,8.15
2019-04-23T06:50:01.565Z,8.20
2019-04-23T06:52:25.492Z,7.58
2019-04-23T06:55:17.028Z,8.43
2019-04-23T06:57:55.532Z,8.65
2019-04-23T07:00:34.587Z,8.58
2019-04-23T07:03:18.168Z,8.58
2019-04-23T07:09:05.388Z,8.10
2019-04-23T07:13:58.645Z,7.70
2019-04-23T07:16:49.850Z,7.45
2019-04-23T07:19:37.118Z,7.62
2019-04-23T07:22:14.711Z,7.50
2019-04-23T07:24:47.368Z,7.20
2019-04-23T07:32:52.942Z,6.83
2019-04-23T07:35:39.811Z,6.65
2019-04-23T07:38:13.311Z,6.15
2019-04-23T07:40:40.574Z,6.60
2019-04-23T07:43:39.835Z,6.92
2019-04-23T07:46:45.479Z,7.12
2019-04-23T07:49:11.902Z,6.60
2019-04-23T07:52:01.161Z,6.62
2019-04-23T07:54:30.977Z,6.80
2019-04-23T07:57:12.125Z,6.40
2019-04-23T07:59:56.893Z,6.70
2019-04-23T08:05:25.183Z,6.17
2019-04-23T08:07:55.765Z,6.15
2019-04-23T08:10:44.520Z,5.87
2019-04-23T08:13:21.635Z,5.78
2019-04-23T08:15:57.372Z,5.85
2019-04-23T08:18:40.896Z,5.60
2019-04-23T08:21:10.337Z,5.78
2019-04-23T08:23:56.919Z,5.78
2019-04-23T08:29:41.081Z,5.50
2019-04-23T08:32:38.582Z,5.60
2019-04-23T08:35:30.081Z,6.72
2019-04-23T08:38:16.195Z,6.22
2019-04-23T08:40:54.356Z,6.20
2019-04-23T08:46:10.768Z,6.45
2019-04-23T08:48:54.689Z,5.47
2019-04-23T08:51:37.158Z,5.40
2019-04-23T08:54:11.776Z,8.40
2019-04-23T08:56:48.312Z,6.72
2019-04-23T08:59:25.219Z,6.20
2019-04-23T09:10:04.413Z,5.53
2019-04-23T09:12:58.745Z,5.20
2019-04-23T09:15:32.469Z,5.55
2019-04-23T09:18:04.338Z,5.30
2019-04-23T09:20:31.273Z,6.67
2019-04-23T09:26:08.008Z,5.60
2019-04-23T09:29:12.194Z,4.75
2019-04-23T09:32:40.209Z,4.87
2019-04-23T09:35:24.041Z,4.35
2019-04-23T09:44:39.233Z,4.55
2019-04-23T09:47:00.831Z,4.80
2019-04-23T09:49:34.883Z,4.50
2019-04-23T09:54:49.376Z,4.20
2019-04-23T09:57:26.478Z,4.30
2019-04-23T10:00:24.997Z,4.33
2019-04-23T10:02:31.017Z,4.37
2019-04-23T10:05:03.281Z,4.30
2019-04-23T10:07:38.561Z,4.20
2019-04-23T10:10:22.707Z,3.50
2019-04-23T10:13:02.224Z,4.17
2019-04-23T10:15:46.085Z,3.90
2019-04-23T10:18:18.422Z,4.65
2019-04-23T10:20:56.344Z,4.10
2019-04-23T10:23:37.037Z,4.28
2019-04-23T10:32:15.619Z,3.70
2019-04-23T10:35:03.809Z,3.80
2019-04-23T10:40:28.156Z,3.60
2019-04-23T10:43:05.412Z,4.08
2019-04-23T10:46:07.907Z,3.98
2019-04-23T10:49:11.095Z,4.22
2019-04-23T11:00:07.207Z,3.98
2019-04-23T11:02:59.302Z,3.98
2019-04-23T11:05:33.257Z,3.92
2019-04-23T11:07:42.048Z,4.10
2019-04-23T11:10:44.270Z,4.60
2019-04-23T11:13:25.654Z,4.17
2019-04-23T11:16:21.434Z,4.90
2019-04-23T11:18:48.520Z,3.95
2019-04-23T11:21:26.460Z,3.70
2019-04-23T11:24:04.827Z,3.92
2019-04-23T11:29:12.785Z,3.75
2019-04-23T11:34:44.483Z,4.25
2019-04-23T11:37:07.366Z,4.42
2019-04-23T11:39:39.674Z,4.12
2019-04-23T11:42:14.641Z,4.22
2019-04-23T11:47:45.661Z,5.10
2019-04-23T11:50:14.167Z,6.03
2019-04-23T11:52:50.051Z,5.35
2019-04-23T12:01:04.518Z,6.33
2019-04-23T12:03:36.995Z,5.33
2019-04-23T12:09:15.983Z,8.58
2019-04-23T12:14:42.266Z,5.70
2019-04-23T12:19:57.548Z,5.25
2019-04-23T12:22:29.490Z,3.83
2019-04-23T12:27:33.407Z,4.30
2019-04-23T12:30:27.529Z,4.20
2019-04-23T12:33:20.745Z,4.53
2019-04-23T12:35:43.417Z,4.62
2019-04-23T12:38:25.606Z,4.80
2019-04-23T12:43:23.810Z,5.53
2019-04-23T12:46:06.327Z,4.83
2019-04-23T12:48:50.809Z,5.15
2019-04-23T12:51:26.398Z,5.17
2019-04-23T12:53:52.499Z,5.17
2019-04-23T12:56:41.910Z,5.55
2019-04-23T12:59:05.745Z,5.10
2019-04-23T13:01:57.591Z,5.47
2019-04-23T13:04:38.290Z,4.72
2019-04-23T13:07:19.221Z,4.80
2019-04-23T13:09:52.587Z,4.33
2019-04-23T13:12:48.014Z,4.20
2019-04-23T13:15:10.864Z,4.10
2019-04-23T13:17:50.468Z,4.37
2019-04-23T13:20:23.273Z,4.25
2019-04-23T13:25:49.517Z,4.10
2019-04-23T13:28:21.222Z,4.70
2019-04-23T13:30:59.301Z,4.55
2019-04-23T13:33:43.838Z,4.20
2019-04-23T13:36:33.008Z,4.60
2019-04-23T13:39:01.932Z,4.55
2019-04-23T13:41:42.095Z,5.22
2019-04-23T13:44:21.439Z,4.62
2019-04-23T13:47:13.681Z,4.90
2019-04-23T13:50:07.542Z,4.70
2019-04-23T13:55:10.926Z,4.87
2019-04-23T14:00:44.679Z,4.87
2019-04-23T14:03:17.617Z,5.25
2019-04-23T14:05:56.820Z,4.58
2019-04-23T14:08:47.230Z,5.12
2019-04-23T14:14:36.340Z,4.87
2019-04-23T14:20:32.169Z,4.83
2019-04-23T14:23:29.311Z,4.92
2019-04-23T14:28:43.063Z,5.00
2019-04-23T14:31:11.167Z,4.95
2019-04-23T14:39:05.716Z,4.50
2019-04-23T14:41:44.326Z,5.00
2019-04-23T14:44:27.618Z,4.37
2019-04-23T14:50:12.051Z,4.83
2019-04-23T14:52:31.308Z,5.03
2019-04-23T14:55:40.238Z,4.58
2019-04-23T14:58:00.866Z,4.70
2019-04-23T15:01:03.124Z,4.50
2019-04-23T15:03:28.016Z,4.78
2019-04-23T15:06:05.326Z,4.87
2019-04-23T15:08:39.742Z,5.15
2019-04-23T15:11:20.928Z,4.62
2019-04-23T15:13:44.865Z,5.10
2019-04-23T15:22:17.044Z,4.97
2019-04-23T15:29:39.259Z,5.58
2019-04-23T15:32:23.885Z,4.92
2019-04-23T15:35:18.500Z,4.65
2019-04-23T15:38:16.140Z,5.10
2019-04-23T15:40:23.287Z,4.70
2019-04-23T15:43:09.087Z,4.65
2019-04-23T15:45:47.775Z,5.03
2019-04-23T15:48:26.063Z,5.17
2019-04-23T15:51:11.659Z,4.62
2019-04-23T15:53:44.423Z,4.92
2019-04-23T15:56:33.545Z,4.42
2019-04-23T16:01:40.512Z,4.78
2019-04-23T16:03:47.312Z,4.97
2019-04-23T16:06:27.241Z,4.92
2019-04-23T16:09:21.393Z,4.40
2019-04-23T16:12:03.459Z,4.95
2019-04-23T16:15:02.524Z,4.50
2019-04-23T16:22:52.974Z,5.00
2019-04-23T16:25:36.351Z,4.67
2019-04-23T16:28:38.484Z,4.47
2019-04-23T16:31:08.078Z,4.47
2019-04-23T16:33:57.098Z,4.65
2019-04-23T16:39:07.515Z,5.20
2019-04-23T16:41:46.656Z,4.30
2019-04-23T16:47:04.550Z,4.72
2019-04-23T16:52:09.589Z,4.92
2019-04-23T16:54:55.083Z,4.60
2019-04-23T16:57:32.714Z,4.58
2019-04-23T17:02:40.548Z,4.53
2019-04-23T17:05:19.697Z,4.67
2019-04-23T17:08:08.981Z,5.00
2019-04-23T17:10:28.152Z,4.72
2019-04-23T17:13:20.312Z,4.58
2019-04-23T17:15:53.363Z,4.60
2019-04-23T17:18:26.189Z,4.53
2019-04-23T17:20:57.982Z,4.67
2019-04-23T17:23:39.609Z,5.30
2019-04-23T17:26:13.157Z,4.37
2019-04-23T17:28:44.451Z,4.53
2019-04-23T17:39:19.337Z,4.92
2019-04-23T17:45:00.063Z,5.25
2019-04-23T17:47:24.327Z,4.60
2019-04-23T17:52:35.368Z,4.72
2019-04-23T17:55:13.329Z,4.90
2019-04-23T17:57:45.967Z,5.10
2019-04-23T18:00:25.499Z,5.08
2019-04-23T18:05:33.350Z,4.92
2019-04-23T18:08:11.795Z,5.08
2019-04-23T18:10:48.725Z,4.87
2019-04-23T18:13:22.986Z,4.80
2019-04-23T18:16:04.489Z,5.00
2019-04-23T18:18:48.444Z,5.05
2019-04-23T18:24:22.690Z,5.10
2019-04-23T18:27:05.189Z,4.90
2019-04-23T18:29:40.361Z,5.22
2019-04-23T18:32:19.160Z,5.40
2019-04-23T18:35:10.440Z,4.87
2019-04-23T18:37:29.630Z,5.28
2019-04-23T18:39:54.607Z,5.45
2019-04-23T18:42:41.714Z,5.55
2019-04-23T18:45:19.977Z,5.35
2019-04-23T18:50:32.706Z,5.58
2019-04-23T18:53:02.691Z,5.80
2019-04-23T18:55:58.843Z,5.40
2019-04-23T18:58:08.335Z,5.75
2019-04-23T19:06:32.567Z,5.67
2019-04-23T19:09:18.192Z,5.53
2019-04-23T19:14:56.340Z,5.22
2019-04-23T19:20:04.332Z,5.85
2019-04-23T19:22:46.579Z,5.97
2019-04-23T19:25:20.807Z,5.72
2019-04-23T19:30:38.825Z,6.00
2019-04-23T19:33:21.840Z,5.87
2019-04-23T19:38:26.536Z,5.92
2019-04-23T19:46:34.063Z,5.90
2019-04-23T19:48:48.512Z,6.28
2019-04-23T19:54:09.458Z,5.90
2019-04-23T19:56:39.334Z,6.33
2019-04-23T19:59:05.124Z,6.08
2019-04-23T20:01:40.073Z,6.08
2019-04-23T20:04:14.719Z,6.30
2019-04-23T20:12:00.419Z,6.08
2019-04-23T20:14:48.816Z,6.33
2019-04-23T20:17:31.721Z,5.70
2019-04-23T20:19:48.344Z,6.00
2019-04-23T20:22:40.142Z,5.58
2019-04-23T20:32:12.725Z,6.45
2019-04-23T20:33:53.126Z,6.50
2019-04-23T20:35:46.835Z,6.12
2019-04-23T20:40:54.837Z,6.28
2019-04-23T20:43:32.413Z,6.30
2019-04-23T20:46:08.387Z,6.45
2019-04-23T20:48:48.946Z,5.55
2019-04-23T20:51:16.355Z,6.25
2019-04-23T20:54:00.241Z,6.33
2019-04-23T20:56:34.740Z,6.70
2019-04-23T20:59:03.258Z,5.70
2019-04-23T21:02:00.666Z,6.50
2019-04-23T21:04:30.686Z,6.25
2019-04-23T21:07:17.554Z,6.72
2019-04-23T21:09:56.994Z,6.42
2019-04-23T21:12:27.743Z,6.80
2019-04-23T21:15:05.656Z,6.60
2019-04-23T21:17:37.658Z,5.92
2019-04-23T21:20:10.142Z,6.10
2019-04-23T21:22:38.279Z,6.12
2019-04-23T21:25:11.671Z,6.47
2019-04-23T21:27:55.410Z,6.22
2019-04-23T21:33:15.774Z,6.33
2019-04-23T21:36:13.386Z,6.33
2019-04-23T21:44:10.278Z,7.17
2019-04-23T21:46:36.819Z,6.83
2019-04-23T21:49:18.165Z,6.97
2019-04-23T21:54:13.342Z,6.90
2019-04-23T21:56:55.298Z,5.85
2019-04-23T21:59:31.253Z,6.47
2019-04-23T22:02:28.393Z,6.47
2019-04-23T22:04:44.914Z,6.62
2019-04-23T22:07:19.431Z,6.47
2019-04-23T22:09:57.420Z,6.87
2019-04-23T22:12:34.600Z,6.40
2019-04-23T22:15:20.247Z,6.20
2019-04-23T22:17:44.373Z,6.65
2019-04-23T22:20:27.819Z,6.78
2019-04-23T22:25:32.942Z,6.75
2019-04-23T22:28:10.231Z,6.53
2019-04-23T22:30:49.598Z,7.17
2019-04-23T22:33:18.366Z,8.75
2019-04-23T22:38:37.520Z,11.60
2019-04-23T22:41:09.170Z,15.48
2019-04-23T22:43:55.664Z,87.90
2019-04-23T22:49:07.968Z,48.90
2019-04-23T22:51:41.494Z,26.55
2019-04-23T22:56:51.827Z,24.52
2019-04-23T23:01:59.205Z,57.60
2019-04-23T23:04:40.948Z,42.05
2019-04-23T23:07:10.547Z,23.65
2019-04-23T23:12:20.888Z,33.70
2019-04-23T23:15:01.024Z,27.13
2019-04-23T23:17:36.761Z,20.72
2019-04-23T23:20:15.186Z,29.55
2019-04-23T23:22:52.972Z,52.10
2019-04-23T23:25:19.208Z,34.88
2019-04-23T23:27:59.117Z,24.23
2019-04-23T23:30:31.424Z,18.45
2019-04-23T23:33:03.683Z,14.93
2019-04-23T23:38:13.663Z,25.30
2019-04-23T23:40:57.068Z,23.98
2019-04-23T23:43:27.173Z,20.30
2019-04-23T23:46:21.972Z,16.60
2019-04-23T23:48:36.154Z,14.00
2019-04-23T23:54:00.386Z,14.33
2019-04-23T23:56:19.354Z,26.68
2019-04-23T23:59:03.908Z,19.37
